x

Buoy B01 - Western Maine Shelf (44030) Wave Buoy

12:04 - Tue 27th Jan 2015 All times are EST. -5 hours from GMT.

  • Sig Wave height 10.2ft
  • Peak Period 8s
  • Wind
    36mph, 47mph gusts
  • Sea Temp 41°f
  • Air Temp 22°f
  • Sea Pressure 1011.9mb
  • Buoy B01 - Western Maine Shelf
  • Buoy B01 - Western Maine Shelf

More Historic Weather Station data

Upgrade to MSW Pro to gain access to the past 30 days of data for over 8000 Wavebouys and Weather Stations around the globe.

Join Pro

Comparision Forecast

View Surf forecast
   
mar. 01/27 12:04 10ft 8s 36 47 mph 1011.9mb 41f 22f
lun. 01/26 11:04 8.5ft 6s 38 47 mph 1014.1mb 41f 23f
10:04 8ft 6s 34 40 mph 1016.1mb 41f 24f
9:04 7ft 6s 31 38 mph 1017mb 41f 25f
8:04 7ft 5s 31 43 mph 1018.1mb 41f 26f
7:04 5ft 5s 27 34 mph 1018.4mb 41f 26f
6:04 6ft 5s 27 31 mph 1018.4mb 41f 27f
5:04 4.5ft 5s 22 27 mph 1018.6mb 41f 26f
4:04 4ft 5s 22 29 mph 1018.1mb 41f 25f
3:04 4.5ft 5s 20 25 mph 1018.4mb 41f 24f
2:04 3ft 4s 20 25 mph 1018.6mb 42f 24f
1:04 4ft 11s 18 25 mph 1018.8mb 42f 23f
12:04 2.5ft 4s 16 20 mph 1019.7mb 42f 22f
11:04 2.5ft 4s 16 20 mph 1020.9mb 41f 20f
10:04 2.5ft 4s 16 20 mph 1021.3mb 41f 18f
9:04 3.5ft 11s 16 20 mph 1020.8mb 41f 17f
8:04 3.5ft 11s 13 18 mph 1020.6mb 41f 16f
7:04 3.5ft 11s 11 16 mph 1020.2mb 42f 16f
6:04 2ft 4s 11 16 mph 1019.4mb 42f 15f
5:04 3.5ft 11s 13 18 mph 1018.7mb 42f 15f
4:04 1.6ft 4s 13 18 mph 1017.9mb 42f 16f
3:04 2ft 3s 13 18 mph 1017.5mb 42f 15f
2:04 2ft 4s 16 20 mph 1017.3mb 41f 16f
1:04 2ft 3s 13 18 mph 1016.7mb 41f 17f
12:04 2.5ft 4s 18 25 mph 1016mb 41f 18f
dim. 01/25 11:04 2.5ft 3s 22 27 mph 1015.4mb 41f 20f
10:04  -   -  22 27 mph 1014.3mb 42f 20f
9:04 3ft 4s 22 29 mph 1013.4mb 41f 21f
8:04 3ft 4s 27 34 mph 1011.8mb 41f 23f
7:04  -   -  22 29 mph 1010.1mb 41f 25f
6:04  -   -  22 29 mph 1009.1mb 41f 28f
5:04 3.5ft 4s 22 27 mph 1006.9mb 41f 29f
4:04 3ft 4s 22 29 mph 1004.9mb 41f 30f
3:04 3ft 4s 27 34 mph 1003.3mb 41f 32f
2:04 3.5ft 4s 25 31 mph 1002mb 41f 32f
1:04 4ft 4s 27 31 mph 1000.8mb 41f 32f
12:04 4ft 4s 31 36 mph 1000.2mb 41f 33f
11:04  -   -  27 34 mph 999.5mb 41f 34f
10:04  -   -  20 25 mph 998.1mb 41f 36f
9:04  -   -  20 25 mph 996.8mb 41f 36f
8:04  -   -  22 27 mph 996.1mb 41f 35f
7:04  -   -  25 29 mph 995mb 41f 35f
6:04  -   -  29 34 mph 993.6mb 41f 35f
5:04  -   -  27 36 mph 992.7mb 41f 36f
4:04 6.5ft 11s 29 36 mph 991mb 41f 36f
3:04 3.5ft 4s 27 31 mph 990.2mb 41f 35f
2:04 4ft 4s 25 29 mph 989.4mb 41f 35f
1:04 3.5ft 6s 22 27 mph 988.6mb 41f 35f
12:04 3.5ft 6s 20 25 mph 987.7mb 41f 34f
sam. 01/24 11:04 3.5ft 6s 16 20 mph 987.7mb 41f 34f
10:04 3.5ft 6s 13 16 mph 987.5mb 41f 33f
9:04 4.5ft 5s 18 22 mph 986.8mb 41f 32f
8:04 4.5ft 5s 25 29 mph 986mb 41f 31f
7:04 4ft 5s 27 34 mph 987.1mb 41f 31f
6:04 4.5ft 5s 22 27 mph 986.7mb 41f 31f
5:04 4ft 5s 25 29 mph 986.4mb 42f 33f
4:04 3.5ft 4s 25 29 mph 989mb 42f 33f
3:04 3ft 4s 20 22 mph 992.6mb 42f 33f
2:04 2.5ft 3s 22 25 mph 992.2mb 42f 33f
1:04 2ft 5s 18 20 mph 995.1mb 42f 33f
12:04 2.5ft 5s 13 16 mph 997.3mb 42f 32f
11:04 2ft 5s 11 13 mph 1000.2mb 42f 32f
10:04 2.5ft 5s 13 16 mph 1001.6mb 42f 32f
9:04 3ft 5s 9 11 mph 1004.2mb 42f 33f
8:04 3.5ft 5s 18 22 mph 1005.8mb 42f 35f
7:04 3.5ft 4s 20 25 mph 1006.6mb 42f 36f
6:04 3ft 5s 20 25 mph 1006.9mb 42f 35f
5:04 2.5ft 5s 18 22 mph 1006.6mb 42f 35f
4:04 3.5ft 5s 18 22 mph 1007.5mb 42f 34f
3:04 4ft 5s 18 25 mph 1008.2mb 42f 35f
2:04 4ft 5s 20 22 mph 1009.4mb 42f 34f
1:04 3.5ft 5s 20 22 mph 1010mb 42f 33f
12:04 3.5ft 5s 18 20 mph 1010.5mb 42f 33f
ven. 01/23 11:04 3.5ft 4s 22 27 mph 1012mb 42f 34f
10:04  -   -  22 27 mph 1012.4mb 42f 35f
9:04 4.5ft 11s 20 22 mph 1013.4mb 42f 36f
8:04 5ft 11s 22 29 mph 1014.5mb 42f 36f
7:04  -   -  20 25 mph 1015mb 42f 35f
6:04 4.5ft 11s 18 20 mph 1015.3mb 42f 35f
5:04 4ft 11s 16 20 mph 1015.5mb 42f 35f
4:04 4.5ft 11s 11 16 mph 1016.1mb 41f 34f
3:04 4ft 11s 11 16 mph 1016.5mb 41f 33f
2:04 4ft 11s 16 18 mph 1017.2mb 42f 33f
1:04 4ft 11s 16 20 mph 1018.3mb 42f 32f
12:04  -   -  16 22 mph 1019.3mb 42f 31f
11:04 4.5ft 8s 13 20 mph 1020.7mb 42f 29f
10:04 4.5ft 11s 13 18 mph 1021.8mb 42f 28f
9:04 4ft 8s 13 18 mph 1022.2mb 42f 26f
8:04 4.5ft 11s 16 20 mph 1022.7mb 42f 25f
7:04 4.5ft 11s 11 13 mph 1022.6mb 42f 26f